Time;durP1;ratioP1;P1;durP2;ratioP2;P2;SDS_P1;SDS_P2;PMS_P1;PMS_P2;Temp;Humidity;BMP_temperature;BMP_pressure;BME280_temperature;BME280_humidity;BME280_pressure;Samples;Min_cycle;Max_cycle;Signal;HPM_P1;HPM_P2
2021/08/31 00:02:04;;;;;;;24.63;20.42;;;15.00;99.90;;;;;;5073202;28;20472;-68
2021/08/31 00:04:30;;;;;;;42.58;30.75;;;15.00;99.90;;;;;;5073902;28;20142;-68
2021/08/31 00:06:56;;;;;;;51.97;41.85;;;14.90;99.90;;;;;;5055909;28;20457;-67
2021/08/31 00:09:22;;;;;;;62.38;47.50;;;15.00;99.90;;;;;;5055738;28;20036;-66
2021/08/31 00:11:48;;;;;;;50.97;40.75;;;15.00;99.90;;;;;;5073733;28;20492;-66
2021/08/31 00:14:14;;;;;;;49.85;40.05;;;15.00;99.90;;;;;;5055818;28;20483;-68
2021/08/31 00:16:40;;;;;;;52.35;42.75;;;15.00;99.90;;;;;;5055626;28;20024;-66
2021/08/31 00:19:06;;;;;;;70.50;52.45;;;15.00;99.90;;;;;;5073873;28;20036;-66
2021/08/31 00:21:32;;;;;;;73.07;54.08;;;14.90;99.90;;;;;;5073545;28;20075;-66
2021/08/31 00:23:58;;;;;;;72.07;51.63;;;14.90;99.90;;;;;;5073556;28;20029;-65
2021/08/31 00:26:24;;;;;;;64.03;49.88;;;14.90;99.90;;;;;;5055479;28;20024;-66
2021/08/31 00:28:50;;;;;;;61.90;47.50;;;15.00;99.90;;;;;;5073094;28;20043;-66
2021/08/31 00:31:19;;;;;;;58.25;43.55;;;15.00;99.90;;;;;;5073410;28;20032;-66
2021/08/31 00:33:45;;;;;;;58.80;40.38;;;15.00;99.90;;;;;;5055409;28;20039;-66
2021/08/31 00:36:11;;;;;;;45.53;35.25;;;15.10;99.90;;;;;;5073052;28;20025;-67
2021/08/31 00:38:36;;;;;;;37.58;30.33;;;15.00;99.90;;;;;;5073597;28;20112;-66
2021/08/31 00:41:03;;;;;;;36.85;28.80;;;15.10;99.90;;;;;;5073298;28;20135;-67
2021/08/31 00:43:41;;;;;;;34.38;26.65;;;15.20;99.90;;;;;;5073547;28;20384;-67
2021/08/31 00:46:07;;;;;;;32.28;25.80;;;15.10;99.90;;;;;;5073300;28;20033;-65
2021/08/31 00:48:33;;;;;;;39.40;28.83;;;15.10;99.90;;;;;;5073260;28;20036;-67
2021/08/31 00:50:59;;;;;;;34.97;28.38;;;15.10;99.90;;;;;;5072920;28;20115;-67
2021/08/31 00:53:25;;;;;;;38.83;30.23;;;15.00;99.90;;;;;;5055143;28;20032;-64
2021/08/31 00:55:50;;;;;;;31.83;26.40;;;14.90;99.90;;;;;;5072825;28;20040;-68
2021/08/31 00:58:16;;;;;;;30.27;24.38;;;14.90;99.90;;;;;;5073057;28;20041;-66
2021/08/31 01:00:42;;;;;;;39.70;25.70;;;14.80;99.90;;;;;;5072910;28;20049;-65
2021/08/31 01:03:08;;;;;;;41.90;33.03;;;14.70;99.90;;;;;;5073025;28;20025;-65
2021/08/31 01:05:35;;;;;;;34.15;27.48;;;14.70;99.90;;;;;;5054959;28;20032;-68
2021/08/31 01:08:01;;;;;;;30.27;25.85;;;14.60;99.90;;;;;;5072923;28;20032;-67
2021/08/31 01:10:27;;;;;;;31.52;23.77;;;14.60;99.90;;;;;;5054916;28;20522;-64
2021/08/31 01:12:56;;;;;;;27.67;24.67;;;14.60;99.90;;;;;;5072604;28;20047;-64
2021/08/31 01:15:22;;;;;;;26.70;23.42;;;14.60;99.90;;;;;;5072897;28;20028;-64
2021/08/31 01:17:49;;;;;;;33.97;23.77;;;14.60;99.90;;;;;;5073190;28;20077;-65
2021/08/31 01:20:15;;;;;;;27.60;21.88;;;14.60;99.90;;;;;;5054745;28;20534;-66
2021/08/31 01:22:41;;;;;;;31.17;21.08;;;14.60;99.90;;;;;;5072856;28;20033;-65
2021/08/31 01:25:08;;;;;;;26.98;19.90;;;14.70;99.90;;;;;;5072916;28;20040;-66
2021/08/31 01:27:34;;;;;;;25.70;18.98;;;14.60;99.90;;;;;;5072987;28;20107;-66
2021/08/31 01:30:00;;;;;;;24.73;18.77;;;14.60;99.90;;;;;;5072850;28;20055;-65
2021/08/31 01:32:27;;;;;;;25.75;19.25;;;14.60;99.90;;;;;;5073044;28;20483;-65
2021/08/31 01:34:53;;;;;;;23.85;19.67;;;14.50;99.90;;;;;;5072845;28;20112;-66
2021/08/31 01:37:19;;;;;;;23.23;15.85;;;14.60;99.90;;;;;;5072743;28;20100;-65
2021/08/31 01:39:45;;;;;;;20.33;14.48;;;14.60;99.90;;;;;;5054631;28;20025;-64
2021/08/31 01:42:11;;;;;;;16.00;13.13;;;14.70;99.90;;;;;;5072616;28;20060;-66
2021/08/31 01:44:37;;;;;;;17.00;12.55;;;14.70;99.90;;;;;;5072657;28;20376;-66
2021/08/31 01:47:03;;;;;;;19.65;11.93;;;14.70;99.90;;;;;;5072694;28;20032;-67
2021/08/31 01:49:29;;;;;;;12.25;10.88;;;14.70;99.90;;;;;;5072236;28;20447;-67
2021/08/31 01:51:55;;;;;;;13.50;11.30;;;14.60;99.90;;;;;;5072281;28;20035;-66
2021/08/31 01:54:20;;;;;;;15.15;11.50;;;14.60;99.90;;;;;;5072546;28;20025;-67
2021/08/31 01:56:47;;;;;;;15.90;13.60;;;14.50;99.90;;;;;;5054492;28;20028;-67
2021/08/31 01:59:13;;;;;;;14.50;11.68;;;14.50;99.90;;;;;;5072526;28;20127;-68
2021/08/31 02:01:39;;;;;;;21.20;15.52;;;14.50;99.90;;;;;;5054086;28;20061;-66
2021/08/31 02:04:05;;;;;;;21.00;15.88;;;14.30;99.90;;;;;;5072785;28;20032;-66
2021/08/31 02:06:31;;;;;;;21.55;16.17;;;14.30;99.90;;;;;;5072428;28;20036;-67
2021/08/31 02:08:57;;;;;;;22.75;16.80;;;14.30;99.90;;;;;;5072336;28;20033;-66
2021/08/31 02:11:23;;;;;;;18.60;16.33;;;14.20;99.90;;;;;;5072093;28;20032;-66
2021/08/31 02:13:49;;;;;;;24.13;15.80;;;14.20;99.90;;;;;;5072409;28;20108;-67
2021/08/31 02:16:15;;;;;;;15.77;14.10;;;14.30;99.90;;;;;;5072373;28;20028;-67
2021/08/31 02:18:41;;;;;;;16.50;13.02;;;14.30;99.90;;;;;;5054282;28;20036;-67
2021/08/31 02:21:10;;;;;;;21.27;18.15;;;14.30;99.90;;;;;;5054302;28;20028;-67
2021/08/31 02:23:37;;;;;;;18.02;15.57;;;14.30;99.90;;;;;;5055006;28;20028;-66
2021/08/31 02:26:04;;;;;;;20.00;16.40;;;14.40;99.90;;;;;;5075822;28;20471;-67
2021/08/31 02:28:30;;;;;;;21.88;15.32;;;14.40;99.90;;;;;;5057710;28;20119;-65
2021/08/31 02:30:56;;;;;;;20.02;15.60;;;14.50;99.90;;;;;;5075711;28;20112;-66
2021/08/31 02:33:22;;;;;;;23.52;15.40;;;14.50;99.90;;;;;;5075668;28;20534;-66
2021/08/31 02:35:48;;;;;;;17.30;14.57;;;14.50;99.90;;;;;;5075437;28;20036;-67
2021/08/31 02:38:14;;;;;;;19.30;15.38;;;14.50;99.90;;;;;;5075632;28;20033;-66
2021/08/31 02:40:40;;;;;;;13.93;12.35;;;14.50;99.90;;;;;;5075577;28;20021;-65
2021/08/31 02:43:06;;;;;;;17.60;11.68;;;14.50;99.90;;;;;;5075148;28;20051;-65
2021/08/31 02:45:32;;;;;;;19.45;11.95;;;14.50;99.90;;;;;;5057596;28;20037;-66
2021/08/31 02:47:58;;;;;;;18.92;13.80;;;14.50;99.90;;;;;;5075369;28;20044;-65
2021/08/31 02:50:23;;;;;;;18.50;13.13;;;14.50;99.90;;;;;;5075033;28;20385;-66
2021/08/31 02:52:49;;;;;;;21.10;14.75;;;14.40;99.90;;;;;;5057284;28;20025;-64
2021/08/31 02:55:15;;;;;;;19.42;15.13;;;14.50;99.90;;;;;;5075343;28;20032;-65
2021/08/31 02:57:41;;;;;;;23.00;16.13;;;14.40;99.90;;;;;;5074948;28;20031;-66
2021/08/31 03:00:09;;;;;;;27.65;18.20;;;14.30;99.90;;;;;;5075175;28;20503;-65
2021/08/31 03:02:35;;;;;;;26.80;20.40;;;14.10;99.90;;;;;;5074697;28;20044;-65
2021/08/31 03:05:01;;;;;;;30.73;21.13;;;14.00;99.90;;;;;;5057111;28;20024;-64
2021/08/31 03:07:27;;;;;;;31.20;23.98;;;14.00;99.90;;;;;;5075279;28;20070;-65
2021/08/31 03:09:53;;;;;;;34.03;25.67;;;13.90;99.90;;;;;;5057034;28;20029;-65
2021/08/31 03:12:30;;;;;;;42.80;28.70;;;13.90;99.90;;;;;;5074923;28;20441;-65
2021/08/31 03:14:55;;;;;;;42.45;28.08;;;13.90;99.90;;;;;;5074947;28;20481;-64
2021/08/31 03:17:21;;;;;;;34.38;27.27;;;14.00;99.90;;;;;;5074837;28;20059;-65
2021/08/31 03:19:47;;;;;;;38.03;26.80;;;14.00;99.90;;;;;;5075113;28;20056;-66
2021/08/31 03:22:18;;;;;;;38.08;28.27;;;14.10;99.90;;;;;;5074420;28;20024;-65
2021/08/31 03:24:44;;;;;;;39.88;26.73;;;14.10;99.90;;;;;;5074740;28;20070;-64
2021/08/31 03:27:10;;;;;;;37.75;29.45;;;14.10;99.90;;;;;;5074607;28;20024;-64
2021/08/31 03:29:36;;;;;;;33.38;26.85;;;14.10;99.90;;;;;;5074467;28;20040;-67
2021/08/31 03:32:02;;;;;;;30.95;24.30;;;14.10;99.90;;;;;;5074522;28;20032;-65
2021/08/31 03:34:27;;;;;;;30.73;24.52;;;14.10;99.90;;;;;;5073936;28;20434;-65
2021/08/31 03:36:54;;;;;;;26.10;20.98;;;14.10;99.90;;;;;;5074409;28;20107;-65
2021/08/31 03:39:19;;;;;;;27.02;20.73;;;14.00;99.90;;;;;;5074454;28;20477;-64
2021/08/31 03:41:45;;;;;;;33.65;20.85;;;14.10;99.90;;;;;;5074361;28;20036;-65
2021/08/31 03:44:11;;;;;;;28.77;20.73;;;14.00;99.90;;;;;;5074650;28;20039;-65
2021/08/31 03:46:37;;;;;;;25.40;18.98;;;13.90;99.90;;;;;;5073990;28;20036;-66
2021/08/31 03:49:03;;;;;;;25.45;17.48;;;13.90;99.90;;;;;;5074299;28;20028;-65
2021/08/31 03:51:29;;;;;;;26.25;17.52;;;13.90;99.90;;;;;;5074142;28;20376;-65
2021/08/31 03:53:55;;;;;;;24.20;18.05;;;13.80;99.90;;;;;;5074161;28;20031;-65
2021/08/31 03:56:21;;;;;;;23.33;18.02;;;13.80;99.90;;;;;;5056172;28;20165;-65
2021/08/31 03:58:47;;;;;;;23.90;18.38;;;13.80;99.90;;;;;;5074273;28;20060;-64
2021/08/31 04:01:13;;;;;;;21.88;17.83;;;13.80;99.90;;;;;;5073688;28;20382;-65
2021/08/31 04:03:38;;;;;;;21.38;17.75;;;13.90;99.90;;;;;;5073930;28;20425;-64
2021/08/31 04:06:04;;;;;;;21.35;16.60;;;14.00;99.90;;;;;;5074241;28;20108;-64
2021/08/31 04:08:30;;;;;;;24.15;18.58;;;14.00;99.90;;;;;;5055760;28;20119;-64
2021/08/31 04:10:56;;;;;;;22.35;17.25;;;14.00;99.90;;;;;;5073783;28;20369;-65
2021/08/31 04:13:22;;;;;;;19.48;16.70;;;14.10;99.90;;;;;;5073952;28;20032;-67
2021/08/31 04:15:48;;;;;;;22.90;16.48;;;14.10;99.90;;;;;;5055614;28;20029;-65
2021/08/31 04:18:14;;;;;;;23.42;15.15;;;14.20;99.90;;;;;;5073554;28;20051;-67
2021/08/31 04:20:40;;;;;;;16.88;14.77;;;14.20;99.90;;;;;;5055563;28;20024;-65
2021/08/31 04:23:06;;;;;;;24.80;16.52;;;14.20;99.90;;;;;;5073503;28;20021;-67
2021/08/31 04:25:32;;;;;;;18.48;16.25;;;14.10;99.90;;;;;;5055633;28;20020;-67
2021/08/31 04:27:58;;;;;;;18.30;15.38;;;14.10;99.90;;;;;;5073435;28;20035;-68
2021/08/31 04:30:24;;;;;;;19.45;14.10;;;14.10;99.90;;;;;;5055455;28;20457;-68
2021/08/31 04:32:50;;;;;;;19.42;14.07;;;14.00;99.90;;;;;;5055167;28;20035;-67
2021/08/31 04:35:16;;;;;;;19.83;13.57;;;14.00;99.90;;;;;;5073751;28;20055;-67
2021/08/31 04:37:42;;;;;;;19.85;13.57;;;14.00;99.90;;;;;;5073594;28;20020;-68
2021/08/31 04:40:08;;;;;;;18.80;13.07;;;14.10;99.90;;;;;;5055393;28;20358;-67
2021/08/31 04:42:34;;;;;;;15.70;12.93;;;14.00;99.90;;;;;;5055293;28;20029;-68
2021/08/31 04:45:00;;;;;;;21.25;13.93;;;14.00;99.90;;;;;;5073327;28;20029;-66
2021/08/31 04:47:25;;;;;;;17.85;13.75;;;14.00;99.90;;;;;;5072627;28;20476;-67
2021/08/31 04:49:51;;;;;;;18.08;14.18;;;14.00;99.90;;;;;;5072847;28;20078;-67
2021/08/31 04:52:17;;;;;;;17.40;13.85;;;14.00;99.90;;;;;;5073164;28;20176;-67
2021/08/31 04:54:43;;;;;;;17.80;13.65;;;14.10;99.90;;;;;;5072871;28;20485;-65
2021/08/31 04:57:11;;;;;;;27.15;14.50;;;14.10;99.90;;;;;;5073084;28;20095;-66
2021/08/31 04:59:37;;;;;;;20.42;14.50;;;14.10;99.90;;;;;;5073065;28;20058;-66
2021/08/31 05:02:03;;;;;;;17.08;13.93;;;14.00;99.90;;;;;;5072974;28;20087;-67
2021/08/31 05:04:29;;;;;;;20.85;14.35;;;14.00;99.90;;;;;;5073005;28;20028;-65
2021/08/31 05:06:58;;;;;;;21.33;13.85;;;14.00;99.90;;;;;;5055062;28;20100;-68
2021/08/31 05:09:24;;;;;;;16.90;13.02;;;14.00;99.90;;;;;;5072933;28;20087;-67
2021/08/31 05:11:50;;;;;;;17.98;13.82;;;13.90;99.90;;;;;;5072943;28;20036;-65
2021/08/31 05:14:16;;;;;;;25.65;15.15;;;13.90;99.90;;;;;;5054507;28;20025;-68
2021/08/31 05:16:42;;;;;;;17.27;14.40;;;13.90;99.90;;;;;;5072693;28;20108;-65
2021/08/31 05:19:09;;;;;;;27.33;14.50;;;13.90;99.90;;;;;;5072905;28;20028;-64
2021/08/31 05:21:35;;;;;;;26.55;15.10;;;13.90;99.90;;;;;;5054838;28;20423;-64
2021/08/31 05:24:03;;;;;;;19.95;15.85;;;13.90;99.90;;;;;;5054783;28;20111;-64
2021/08/31 05:26:28;;;;;;;26.27;15.82;;;13.90;99.90;;;;;;5072885;28;20036;-66
2021/08/31 05:28:54;;;;;;;24.48;15.80;;;14.00;99.90;;;;;;5072438;28;20024;-65
2021/08/31 05:31:26;;;;;;;24.27;16.15;;;14.00;99.90;;;;;;5072749;28;20024;-64
2021/08/31 05:33:52;;;;;;;23.38;15.57;;;14.00;99.90;;;;;;5071697;28;20025;-65
2021/08/31 05:36:18;;;;;;;20.35;14.30;;;14.00;99.90;;;;;;5072688;28;20465;-66
2021/08/31 05:38:43;;;;;;;23.75;14.13;;;14.00;99.90;;;;;;5072514;28;20028;-66
2021/08/31 05:41:09;;;;;;;21.20;14.60;;;14.10;99.90;;;;;;5072407;28;20469;-64
2021/08/31 05:43:35;;;;;;;27.88;14.82;;;14.10;99.90;;;;;;5072844;28;20029;-65
2021/08/31 05:46:01;;;;;;;17.05;13.57;;;14.10;99.90;;;;;;5072555;28;20499;-65
2021/08/31 05:48:27;;;;;;;18.23;13.50;;;14.20;99.90;;;;;;5054281;28;20044;-66
2021/08/31 05:50:53;;;;;;;17.25;13.65;;;14.30;99.90;;;;;;5072534;28;20032;-64
2021/08/31 05:53:19;;;;;;;17.73;14.05;;;14.40;99.90;;;;;;5054364;28;20078;-65
2021/08/31 05:55:45;;;;;;;22.08;12.45;;;14.50;99.90;;;;;;5072244;28;20024;-67
2021/08/31 05:58:11;;;;;;;15.10;12.13;;;14.60;99.90;;;;;;5055965;28;20025;-66
2021/08/31 06:00:36;;;;;;;15.10;12.32;;;14.70;99.90;;;;;;5075848;28;20408;-67
2021/08/31 06:03:02;;;;;;;20.73;13.30;;;14.80;99.90;;;;;;5076209;28;20031;-67
2021/08/31 06:05:28;;;;;;;19.05;14.02;;;14.80;99.90;;;;;;5074823;28;20050;-67
2021/08/31 06:07:54;;;;;;;19.48;15.88;;;14.60;99.90;;;;;;5096031;28;20069;-66
2021/08/31 06:10:20;;;;;;;23.38;14.57;;;14.70;99.90;;;;;;5096428;28;20043;-66
2021/08/31 06:12:46;;;;;;;24.80;14.48;;;14.60;99.90;;;;;;5096344;28;20066;-66
2021/08/31 06:15:12;;;;;;;22.45;13.77;;;14.60;99.90;;;;;;5077971;28;20024;-67
2021/08/31 06:17:38;;;;;;;22.40;14.57;;;14.80;99.90;;;;;;5096210;28;20471;-68
2021/08/31 06:20:09;;;;;;;28.02;14.98;;;14.90;99.90;;;;;;5077939;28;20055;-67
2021/08/31 06:22:35;;;;;;;25.33;13.68;;;15.00;99.90;;;;;;5096216;28;20105;-67
2021/08/31 06:25:01;;;;;;;25.17;15.38;;;15.10;99.90;;;;;;5096090;28;20083;-67
2021/08/31 06:27:27;;;;;;;20.27;13.20;;;;;;;;;;5095783;28;20031;-66
2021/08/31 06:29:54;;;;;;;27.88;14.02;;;15.20;99.90;;;;;;5095651;28;20028;-68
2021/08/31 06:32:20;;;;;;;19.30;13.40;;;15.40;99.90;;;;;;5095981;28;20024;-66
2021/08/31 06:34:46;;;;;;;18.42;14.20;;;15.50;99.90;;;;;;5095889;28;20519;-66
2021/08/31 06:37:12;;;;;;;20.08;14.70;;;15.70;99.90;;;;;;5077612;28;20028;-66
2021/08/31 06:39:37;;;;;;;19.40;14.02;;;15.80;99.90;;;;;;5077597;28;20028;-66
2021/08/31 06:42:03;;;;;;;20.23;13.35;;;16.00;99.90;;;;;;5095454;28;20039;-66
2021/08/31 06:44:32;;;;;;;18.63;12.32;;;16.10;99.90;;;;;;5095619;28;20024;-67
2021/08/31 06:46:58;;;;;;;18.10;12.75;;;16.10;99.90;;;;;;5095581;28;20071;-66
2021/08/31 06:49:24;;;;;;;14.20;12.00;;;16.20;99.90;;;;;;5095585;28;20059;-66
2021/08/31 06:51:50;;;;;;;17.35;12.68;;;16.20;99.90;;;;;;5095562;28;20070;-64
2021/08/31 06:54:16;;;;;;;18.90;11.70;;;16.30;99.90;;;;;;5095525;28;20124;-67
2021/08/31 06:56:42;;;;;;;17.60;12.38;;;16.40;99.90;;;;;;5095507;28;20099;-65
2021/08/31 06:59:07;;;;;;;17.33;12.18;;;16.40;99.90;;;;;;5095130;28;20389;-65
2021/08/31 07:01:35;;;;;;;15.98;11.70;;;16.50;99.90;;;;;;5076764;28;20052;-65
2021/08/31 07:04:01;;;;;;;14.73;11.63;;;16.50;99.90;;;;;;5074621;28;20368;-64
2021/08/31 07:06:26;;;;;;;22.88;13.60;;;16.40;99.90;;;;;;5055771;28;20028;-67
2021/08/31 07:08:52;;;;;;;15.98;11.73;;;16.40;99.90;;;;;;5056208;28;20028;-65
2021/08/31 07:11:18;;;;;;;13.40;10.90;;;16.30;99.90;;;;;;5074534;28;20572;-64
2021/08/31 07:13:44;;;;;;;18.80;12.57;;;16.40;99.90;;;;;;5074479;28;20495;-65
2021/08/31 07:16:10;;;;;;;12.98;11.57;;;16.40;99.90;;;;;;5074446;28;20035;-68
2021/08/31 07:18:36;;;;;;;17.92;13.77;;;16.50;99.90;;;;;;5074751;28;20034;-65
2021/08/31 07:21:02;;;;;;;16.85;12.45;;;16.60;99.90;;;;;;5074415;28;20033;-64
2021/08/31 07:23:28;;;;;;;14.68;12.73;;;16.50;99.90;;;;;;5074263;28;20453;-66
2021/08/31 07:25:54;;;;;;;17.13;11.57;;;16.50;99.90;;;;;;5074345;28;20059;-68
2021/08/31 07:28:19;;;;;;;15.10;12.10;;;16.50;99.90;;;;;;5074479;28;20110;-64
2021/08/31 07:30:45;;;;;;;17.45;12.63;;;16.70;99.90;;;;;;5074505;28;20094;-65
2021/08/31 07:33:11;;;;;;;18.45;12.07;;;17.00;99.90;;;;;;5074492;28;20083;-65
2021/08/31 07:35:38;;;;;;;12.80;10.13;;;17.20;99.90;;;;;;5074327;28;20362;-64
2021/08/31 07:38:05;;;;;;;13.60;12.10;;;17.20;99.90;;;;;;5074530;28;20028;-66
2021/08/31 07:40:31;;;;;;;9.57;8.68;;;17.30;99.90;;;;;;5074355;28;20045;-64
2021/08/31 07:42:57;;;;;;;14.05;11.27;;;17.40;99.90;;;;;;5074233;28;20132;-65
2021/08/31 07:45:23;;;;;;;15.63;11.43;;;17.60;99.90;;;;;;5073946;28;20085;-67
2021/08/31 07:47:50;;;;;;;15.75;10.85;;;17.80;99.90;;;;;;5073586;28;20024;-67
2021/08/31 07:50:16;;;;;;;10.65;9.55;;;18.00;99.90;;;;;;5073341;28;20112;-65
2021/08/31 07:52:42;;;;;;;14.88;11.27;;;18.10;99.90;;;;;;5073499;28;20499;-65
2021/08/31 07:55:09;;;;;;;12.02;10.82;;;18.30;99.90;;;;;;5055754;28;20040;-66
2021/08/31 07:57:37;;;;;;;10.98;8.35;;;18.40;99.90;;;;;;5072531;28;20024;-64
2021/08/31 08:00:05;;;;;;;11.07;8.88;;;18.50;99.90;;;;;;5074190;28;20082;-65
2021/08/31 08:02:33;;;;;;;14.57;8.70;;;18.70;99.90;;;;;;5055390;28;20104;-65
2021/08/31 08:05:00;;;;;;;13.00;10.07;;;18.90;99.90;;;;;;5073785;28;20162;-65
2021/08/31 08:07:26;;;;;;;11.05;8.93;;;19.00;99.90;;;;;;5073654;28;20024;-66
2021/08/31 08:09:53;;;;;;;9.25;8.27;;;19.20;99.90;;;;;;5073644;28;20105;-65
2021/08/31 08:12:19;;;;;;;13.10;8.73;;;19.40;99.90;;;;;;5073741;28;20461;-66
2021/08/31 08:14:45;;;;;;;13.38;8.23;;;19.50;99.90;;;;;;5073679;28;20025;-66
2021/08/31 08:17:11;;;;;;;8.48;7.57;;;19.60;99.90;;;;;;5073620;28;20497;-66
2021/08/31 08:19:38;;;;;;;8.05;6.85;;;19.80;99.90;;;;;;5073613;28;20044;-66
2021/08/31 08:22:04;;;;;;;6.93;6.22;;;20.10;99.90;;;;;;5072651;28;20032;-69
2021/08/31 08:24:30;;;;;;;7.30;6.45;;;;;;;;;;5073486;28;20465;-65
2021/08/31 08:26:59;;;;;;;6.53;5.80;;;20.30;99.90;;;;;;5073685;28;20373;-67
2021/08/31 08:29:26;;;;;;;8.50;6.03;;;20.40;99.90;;;;;;5073334;28;20499;-66
2021/08/31 08:31:52;;;;;;;6.50;5.93;;;20.40;99.90;;;;;;5073410;28;20024;-66
2021/08/31 08:34:18;;;;;;;8.32;5.30;;;20.70;99.90;;;;;;5073332;28;20028;-65
2021/08/31 08:36:44;;;;;;;6.03;5.53;;;21.00;99.90;;;;;;5073407;28;20032;-66
2021/08/31 08:39:10;;;;;;;6.38;5.75;;;21.20;99.90;;;;;;5073144;28;20040;-66
2021/08/31 08:41:36;;;;;;;6.95;5.28;;;21.40;99.90;;;;;;5073253;28;20107;-66
2021/08/31 08:44:02;;;;;;;7.80;6.22;;;;;;;;;;5073134;28;20035;-66
2021/08/31 08:46:28;;;;;;;6.78;5.60;;;21.50;98.10;;;;;;5073430;28;20025;-66
2021/08/31 08:48:58;;;;;;;6.85;4.78;;;21.60;99.70;;;;;;5073085;28;20032;-66
2021/08/31 08:51:24;;;;;;;9.85;5.32;;;21.70;99.90;;;;;;5072967;28;20119;-67
2021/08/31 08:53:50;;;;;;;6.22;4.68;;;21.40;98.10;;;;;;5073058;28;20429;-66
2021/08/31 08:56:17;;;;;;;8.27;5.38;;;20.90;97.70;;;;;;5073322;28;20039;-66
2021/08/31 08:58:43;;;;;;;6.32;5.43;;;20.70;97.70;;;;;;5055001;28;20033;-66
2021/08/31 09:01:13;;;;;;;7.30;5.30;;;21.20;97.40;;;;;;5054434;28;20063;-65
2021/08/31 09:03:43;;;;;;;5.63;4.78;;;21.50;97.50;;;;;;5072915;28;20028;-67
2021/08/31 09:06:14;;;;;;;7.72;4.60;;;;;;;;;;5072992;28;20017;-68
2021/08/31 09:08:53;;;;;;;;;;;22.00;99.90;;;;;;5073314;28;20021;-66
2021/08/31 09:11:22;;;;;;;4.88;3.92;;;22.10;96.10;;;;;;5072656;28;19912;-68
2021/08/31 09:13:50;;;;;;;5.68;4.32;;;22.10;94.00;;;;;;5072861;28;20032;-68
2021/08/31 09:16:34;;;;;;;5.15;4.20;;;22.20;99.50;;;;;;5072826;28;20024;-65
2021/08/31 09:19:00;;;;;;;5.18;4.40;;;22.40;96.50;;;;;;5073183;28;20047;-65
2021/08/31 09:21:28;;;;;;;7.47;4.95;;;22.50;92.80;;;;;;5072571;28;20178;-68
2021/08/31 09:23:57;;;;;;;7.88;4.97;;;22.90;93.80;;;;;;5072864;28;20028;-69
2021/08/31 09:26:44;;;;;;;5.20;4.70;;;22.50;91.20;;;;;;5054718;28;20036;-68
2021/08/31 09:29:17;;;;;;;3.83;3.40;;;22.40;91.80;;;;;;5072742;28;20033;-67
2021/08/31 09:31:48;;;;;;;4.07;3.60;;;22.90;91.30;;;;;;5072589;28;20387;-67
2021/08/31 09:34:42;;;;;;;4.03;3.65;;;23.10;91.80;;;;;;5076225;28;20027;-67
2021/08/31 09:37:35;;;;;;;6.10;4.28;;;23.20;90.60;;;;;;5058604;28;20020;-68
2021/08/31 09:40:16;;;;;;;4.57;3.95;;;23.40;89.40;;;;;;5076612;28;20039;-66
2021/08/31 09:43:06;;;;;;;4.57;3.72;;;23.60;89.20;;;;;;5076647;28;20063;-66
2021/08/31 09:45:40;;;;;;;8.20;3.67;;;23.80;91.20;;;;;;5076509;28;20028;-66
2021/08/31 09:48:07;;;;;;;4.85;3.40;;;23.90;87.60;;;;;;5058383;28;20115;-69
2021/08/31 09:50:43;;;;;;;7.00;3.75;;;23.90;86.60;;;;;;5076406;28;20028;-66
2021/08/31 09:53:19;;;;;;;4.65;3.50;;;24.20;85.70;;;;;;5059580;28;20031;-69
2021/08/31 09:55:47;;;;;;;8.75;3.97;;;24.40;87.00;;;;;;5087995;28;20067;-68
2021/08/31 09:58:24;;;;;;;3.72;3.40;;;24.80;86.10;;;;;;5074493;28;20111;-68
2021/08/31 10:00:53;;;;;;;4.60;3.75;;;24.80;85.10;;;;;;5086509;28;20044;-66
2021/08/31 10:03:20;;;;;;;9.38;3.53;;;24.90;81.00;;;;;;5078270;28;20479;-70
2021/08/31 10:05:47;;;;;;;2.72;2.40;;;25.00;82.10;;;;;;5096465;28;20055;-67
2021/08/31 10:08:15;;;;;;;6.50;2.80;;;25.20;84.50;;;;;;5095872;28;20036;-68
2021/08/31 10:10:42;;;;;;;3.10;2.20;;;25.20;83.30;;;;;;5077078;28;20039;-68
2021/08/31 10:13:16;;;;;;;2.40;2.20;;;25.50;81.90;;;;;;5095464;28;20492;-68
2021/08/31 10:15:46;;;;;;;4.60;2.67;;;25.50;81.40;;;;;;5095370;28;20074;-67
2021/08/31 10:18:13;;;;;;;2.33;2.22;;;25.40;77.70;;;;;;5095813;28;20079;-66
2021/08/31 10:20:44;;;;;;;3.85;3.00;;;25.10;78.30;;;;;;5095959;28;20046;-69
2021/08/31 10:23:13;;;;;;;2.63;2.42;;;25.70;78.30;;;;;;5077644;28;20081;-66
2021/08/31 10:25:40;;;;;;;2.45;2.25;;;26.10;76.90;;;;;;5095619;28;20020;-70
2021/08/31 10:28:28;;;;;;;2.75;2.55;;;25.90;73.90;;;;;;5075053;28;20090;-69
2021/08/31 10:30:57;;;;;;;4.80;3.22;;;26.10;76.20;;;;;;5075428;28;20082;-73
2021/08/31 10:33:35;;;;;;;4.53;2.60;;;26.00;75.00;;;;;;5075035;28;20071;-73
2021/08/31 10:36:05;;;;;;;2.58;2.47;;;25.30;76.70;;;;;;5075227;28;20044;-70
2021/08/31 10:38:51;;;;;;;3.97;2.20;;;25.10;76.40;;;;;;5057323;28;20036;-71
2021/08/31 10:41:44;;;;;;;3.95;2.22;;;26.00;77.80;;;;;;5057098;28;20040;-72
2021/08/31 10:44:41;;;;;;;2.28;2.08;;;27.90;75.20;;;;;;5074047;28;20060;-74
2021/08/31 10:47:09;;;;;;;2.97;2.63;;;29.10;67.60;;;;;;5075379;28;20032;-74
2021/08/31 10:49:57;;;;;;;5.60;2.22;;;29.40;66.40;;;;;;5075236;28;20029;-73
2021/08/31 10:52:39;;;;;;;5.18;3.60;;;29.00;65.50;;;;;;5075037;28;20054;-71
2021/08/31 10:55:27;;;;;;;2.72;2.10;;;28.00;64.80;;;;;;5074955;28;20107;-71
2021/08/31 10:57:58;;;;;;;2.67;2.47;;;26.70;69.10;;;;;;5056008;28;20027;-75
2021/08/31 11:00:24;;;;;;;2.72;2.53;;;27.20;70.40;;;;;;5074812;28;20146;-73
2021/08/31 11:02:58;;;;;;;3.17;2.83;;;25.80;69.10;;;;;;5056880;28;20123;-74
2021/08/31 11:05:26;;;;;;;2.40;2.20;;;26.40;70.30;;;;;;5074549;28;20025;-71
2021/08/31 11:08:02;;;;;;;3.42;2.45;;;28.30;66.80;;;;;;5074637;28;20024;-72
2021/08/31 11:10:34;;;;;;;6.32;1.92;;;29.60;63.80;;;;;;5074526;28;20036;-73
2021/08/31 11:13:24;;;;;;;3.22;2.15;;;29.10;63.70;;;;;;5074702;28;20134;-72
2021/08/31 11:15:55;;;;;;;3.15;1.98;;;30.80;63.00;;;;;;5074425;28;20354;-70
2021/08/31 11:18:21;;;;;;;2.15;2.03;;;31.10;59.20;;;;;;5056518;28;20032;-71
2021/08/31 11:20:47;;;;;;;2.95;2.05;;;32.60;60.30;;;;;;5056547;28;20036;-69
2021/08/31 11:23:24;;;;;;;3.55;2.30;;;33.50;55.80;;;;;;5056330;28;20070;-72
2021/08/31 11:25:54;;;;;;;2.10;1.90;;;34.00;56.20;;;;;;5056355;28;20029;-72
2021/08/31 11:28:28;;;;;;;3.15;2.42;;;31.20;55.80;;;;;;5074679;28;20035;-71
2021/08/31 11:31:00;;;;;;;2.53;1.85;;;30.60;57.90;;;;;;5074461;28;20033;-68
2021/08/31 11:33:31;;;;;;;3.35;1.83;;;28.80;61.10;;;;;;5074465;28;20339;-69
2021/08/31 11:36:06;;;;;;;2.92;2.03;;;29.60;62.60;;;;;;5056171;28;20432;-69
2021/08/31 11:38:34;;;;;;;1.90;1.80;;;31.50;60.20;;;;;;5056222;28;20107;-71
2021/08/31 11:41:20;;;;;;;2.00;1.90;;;31.50;57.10;;;;;;5074066;28;20025;-70
2021/08/31 11:43:52;;;;;;;1.83;1.73;;;32.30;55.80;;;;;;5073752;28;20025;-69
2021/08/31 11:46:28;;;;;;;;;;;33.10;54.80;;;;;;5074353;28;20043;-70
2021/08/31 11:49:19;;;;;;;1.55;1.45;;;33.60;52.90;;;;;;5073974;28;19998;-70
2021/08/31 11:51:57;;;;;;;1.70;1.60;;;33.50;53.40;;;;;;5073665;28;20032;-71
2021/08/31 11:54:24;;;;;;;3.45;1.65;;;34.60;53.20;;;;;;5073695;28;20058;-71
2021/08/31 11:57:08;;;;;;;1.63;1.52;;;35.50;52.40;;;;;;5073614;28;20473;-68
2021/08/31 11:59:40;;;;;;;1.48;1.38;;;35.70;49.20;;;;;;5075963;28;20028;-69
2021/08/31 12:02:24;;;;;;;4.03;1.90;;;32.10;52.00;;;;;;5072123;28;20135;-69
2021/08/31 12:04:58;;;;;;;3.38;1.23;;;29.80;56.30;;;;;;5073552;28;20086;-69
2021/08/31 12:07:27;;;;;;;3.00;1.50;;;32.30;54.70;;;;;;5073624;28;20107;-67
2021/08/31 12:09:55;;;;;;;1.60;1.50;;;31.70;53.20;;;;;;5073332;28;20020;-67
2021/08/31 12:12:21;;;;;;;1.20;1.13;;;33.20;52.10;;;;;;5073298;28;20040;-69
2021/08/31 12:14:50;;;;;;;4.18;1.25;;;34.10;49.90;;;;;;5055285;28;20044;-74
2021/08/31 12:17:34;;;;;;;1.20;1.10;;;35.60;48.90;;;;;;5073330;28;20415;-73
2021/08/31 12:20:06;;;;;;;3.42;1.58;;;36.10;48.40;;;;;;5055457;28;20039;-71
2021/08/31 12:22:33;;;;;;;1.20;1.13;;;34.10;49.40;;;;;;5055210;28;20063;-71
2021/08/31 12:24:59;;;;;;;1.42;1.40;;;31.40;53.20;;;;;;5055221;28;20115;-73
2021/08/31 12:27:35;;;;;;;1.73;1.45;;;32.70;56.10;;;;;;5073156;28;20103;-67
2021/08/31 12:30:01;;;;;;;1.50;1.42;;;32.30;52.20;;;;;;5072831;28;20513;-70
2021/08/31 12:32:31;;;;;;;1.20;1.20;;;34.50;50.70;;;;;;5073430;28;20036;-69
2021/08/31 12:35:28;;;;;;;2.15;1.55;;;32.80;51.50;;;;;;5073252;28;20535;-71
2021/08/31 12:38:14;;;;;;;1.70;1.17;;;35.10;75.40;;;;;;5055081;28;20389;-68
2021/08/31 12:41:09;;;;;;;1.17;1.08;;;35.60;48.20;;;;;;5055039;28;20043;-67
2021/08/31 12:43:51;;;;;;;1.88;1.30;;;36.00;47.40;;;;;;5054802;28;20024;-71